createdAt,value
2022-09-14T00:00:34.173Z,30.43
2022-09-14T00:03:04.213Z,30.36
2022-09-14T00:05:37.507Z,30.50
2022-09-14T00:08:07.573Z,30.44
2022-09-14T00:10:42.388Z,30.54
2022-09-14T00:13:13.389Z,30.42
2022-09-14T00:15:47.904Z,30.45
2022-09-14T00:18:17.826Z,30.41
2022-09-14T00:20:48.105Z,30.43
2022-09-14T00:23:18.042Z,30.43
2022-09-14T00:25:48.189Z,30.44
2022-09-14T00:28:18.176Z,30.35
2022-09-14T00:30:49.156Z,30.30
2022-09-14T00:33:19.201Z,30.24
2022-09-14T00:35:49.511Z,30.29
2022-09-14T00:38:19.635Z,30.24
2022-09-14T00:41:02.447Z,30.33
2022-09-14T00:43:32.718Z,30.17
2022-09-14T00:46:04.296Z,30.22
2022-09-14T00:48:34.670Z,30.19
2022-09-14T00:51:04.906Z,30.24
2022-09-14T00:53:35.029Z,30.30
2022-09-14T00:56:05.193Z,30.26
2022-09-14T00:58:35.601Z,30.25
2022-09-14T01:01:05.709Z,30.24
2022-09-14T01:03:36.113Z,30.31
2022-09-14T01:06:18.446Z,30.37
2022-09-14T01:09:03.636Z,30.41
2022-09-14T01:11:51.630Z,30.48
2022-09-14T01:14:48.689Z,30.49
2022-09-14T01:17:37.837Z,30.57
2022-09-14T01:20:28.541Z,30.46
2022-09-14T01:23:15.814Z,30.49
2022-09-14T01:26:20.183Z,30.67
2022-09-14T01:29:04.844Z,30.64
2022-09-14T01:31:48.672Z,30.66
2022-09-14T01:34:38.942Z,30.64
2022-09-14T01:37:36.002Z,30.75
2022-09-14T01:40:36.580Z,30.72
2022-09-14T01:43:29.665Z,30.80
2022-09-14T01:46:10.923Z,30.79
2022-09-14T01:48:58.569Z,30.83
2022-09-14T01:51:37.769Z,30.84
2022-09-14T01:54:27.685Z,30.93
2022-09-14T01:57:22.359Z,30.97
2022-09-14T01:59:57.229Z,30.96
2022-09-14T02:02:36.270Z,31.01
2022-09-14T02:05:09.749Z,31.02
2022-09-14T02:07:40.542Z,31.01
2022-09-14T02:10:14.906Z,31.11
2022-09-14T02:12:45.809Z,31.11
2022-09-14T02:15:17.423Z,31.12
2022-09-14T02:17:48.564Z,31.18
2022-09-14T02:20:42.136Z,31.30
2022-09-14T02:23:12.462Z,31.27
2022-09-14T02:25:43.834Z,31.29
2022-09-14T02:28:13.832Z,31.42
2022-09-14T02:31:02.488Z,31.56
2022-09-14T02:33:35.505Z,31.49
2022-09-14T02:36:17.126Z,31.62
2022-09-14T02:39:02.575Z,31.74
2022-09-14T02:42:16.905Z,31.82
2022-09-14T02:44:49.825Z,31.72
2022-09-14T02:47:36.675Z,31.83
2022-09-14T02:50:46.485Z,31.86
2022-09-14T02:53:33.196Z,31.99
2022-09-14T02:56:09.211Z,32.06
2022-09-14T02:58:44.703Z,32.22
2022-09-14T03:01:17.845Z,32.13
2022-09-14T03:03:48.686Z,32.23
2022-09-14T03:06:19.421Z,32.37
2022-09-14T03:08:50.050Z,32.45
2022-09-14T03:11:20.183Z,32.50
2022-09-14T03:13:51.129Z,32.52
2022-09-14T03:16:21.626Z,32.66
2022-09-14T03:18:51.833Z,32.71
2022-09-14T03:21:21.802Z,32.81
2022-09-14T03:23:53.893Z,32.92
2022-09-14T03:26:25.378Z,32.92
2022-09-14T03:29:00.657Z,32.96
2022-09-14T03:31:31.688Z,32.90
2022-09-14T03:34:03.485Z,32.93
2022-09-14T03:36:34.406Z,32.94
2022-09-14T03:39:04.363Z,32.96
2022-09-14T03:41:34.567Z,32.81
2022-09-14T03:44:04.648Z,32.93
2022-09-14T03:46:34.961Z,32.93
2022-09-14T03:49:05.181Z,33.11
2022-09-14T03:51:36.978Z,33.33
2022-09-14T03:54:07.863Z,33.31
2022-09-14T03:56:37.790Z,33.31
2022-09-14T03:59:11.767Z,33.62
2022-09-14T04:01:42.589Z,33.58
2022-09-14T04:04:12.794Z,33.67
2022-09-14T04:06:42.738Z,33.44
2022-09-14T04:09:13.233Z,33.64
2022-09-14T04:11:43.374Z,33.59
2022-09-14T04:14:14.762Z,33.79
2022-09-14T04:16:46.303Z,33.92
2022-09-14T04:19:16.425Z,34.02
2022-09-14T04:21:47.422Z,34.13
2022-09-14T04:24:18.756Z,34.20
2022-09-14T04:26:49.471Z,34.25
2022-09-14T04:29:19.559Z,34.34
2022-09-14T04:31:55.575Z,34.22
2022-09-14T04:34:27.721Z,34.22
2022-09-14T04:36:58.266Z,34.03
2022-09-14T04:39:49.947Z,34.38
2022-09-14T04:42:20.251Z,34.19
2022-09-14T04:44:50.192Z,34.15
2022-09-14T04:47:20.683Z,34.19
2022-09-14T04:49:50.667Z,34.14
2022-09-14T04:52:20.940Z,34.02
2022-09-14T04:54:50.608Z,34.12
2022-09-14T04:57:20.739Z,34.14
2022-09-14T04:59:50.404Z,34.05
2022-09-14T05:02:20.286Z,33.94
2022-09-14T05:04:50.631Z,34.10
2022-09-14T05:07:20.430Z,34.47
2022-09-14T05:09:50.389Z,34.67
2022-09-14T05:12:20.297Z,34.79
2022-09-14T05:14:50.295Z,34.80
2022-09-14T05:17:26.166Z,34.85
2022-09-14T05:19:57.799Z,34.91
2022-09-14T05:22:27.618Z,34.47
2022-09-14T05:24:58.601Z,35.07
2022-09-14T05:27:28.319Z,35.01
2022-09-14T05:29:59.658Z,34.77
2022-09-14T05:32:36.755Z,34.92
2022-09-14T05:35:09.438Z,35.29
2022-09-14T05:37:39.920Z,35.33
2022-09-14T05:40:11.173Z,35.34
2022-09-14T05:42:45.399Z,35.54
2022-09-14T05:45:17.425Z,35.57
2022-09-14T05:47:47.191Z,35.83
2022-09-14T05:50:17.270Z,36.03
2022-09-14T05:52:47.420Z,36.04
2022-09-14T05:55:17.483Z,36.13
2022-09-14T05:57:51.738Z,36.43
2022-09-14T06:00:22.837Z,36.36
2022-09-14T06:02:54.612Z,36.53
2022-09-14T06:05:26.906Z,36.35
2022-09-14T06:08:15.231Z,36.51
2022-09-14T06:10:45.513Z,36.43
2022-09-14T06:13:15.506Z,36.33
2022-09-14T06:15:54.415Z,36.45
2022-09-14T06:18:40.618Z,36.49
2022-09-14T06:21:20.331Z,36.21
2022-09-14T06:23:51.654Z,36.36
2022-09-14T06:26:22.393Z,36.43
2022-09-14T06:28:52.374Z,36.08
2022-09-14T06:31:24.169Z,36.40
2022-09-14T06:33:55.175Z,36.33
2022-09-14T06:36:28.194Z,36.52
2022-09-14T06:39:00.291Z,36.59
2022-09-14T06:41:34.461Z,36.71
2022-09-14T06:44:09.032Z,36.57
2022-09-14T06:46:44.556Z,36.41
2022-09-14T06:49:32.488Z,36.61
2022-09-14T06:52:06.037Z,36.39
2022-09-14T06:54:42.383Z,36.24
2022-09-14T06:57:12.526Z,36.17
2022-09-14T06:59:43.668Z,36.21
2022-09-14T07:02:16.180Z,36.00
2022-09-14T07:04:46.703Z,36.16
2022-09-14T07:07:21.585Z,36.21
2022-09-14T07:09:52.798Z,36.07
2022-09-14T07:12:23.740Z,36.20
2022-09-14T07:14:53.731Z,36.38
2022-09-14T07:17:23.897Z,36.23
2022-09-14T07:19:54.046Z,36.21
2022-09-14T07:22:25.137Z,36.08
2022-09-14T07:24:55.301Z,36.02
2022-09-14T07:27:25.347Z,36.05
2022-09-14T07:29:55.846Z,36.13
2022-09-14T07:32:36.958Z,36.42
2022-09-14T07:35:07.476Z,36.44
2022-09-14T07:37:38.290Z,36.54
2022-09-14T07:40:09.078Z,36.59
2022-09-14T07:42:43.074Z,36.61
2022-09-14T07:45:13.645Z,36.60
2022-09-14T07:47:44.263Z,36.52
2022-09-14T07:50:26.113Z,36.87
2022-09-14T07:52:57.633Z,36.81
2022-09-14T07:55:30.743Z,36.51
2022-09-14T07:58:01.250Z,36.43
2022-09-14T08:00:31.450Z,36.62
2022-09-14T08:03:01.355Z,36.60
2022-09-14T08:05:31.275Z,36.66
2022-09-14T08:08:04.332Z,36.52
2022-09-14T08:10:37.777Z,36.47
2022-09-14T08:13:08.019Z,36.48
2022-09-14T08:15:43.500Z,36.38
2022-09-14T08:18:13.024Z,36.47
2022-09-14T08:20:45.182Z,36.56
2022-09-14T08:23:15.255Z,36.50
2022-09-14T08:25:45.336Z,36.53
2022-09-14T08:28:14.986Z,36.35
2022-09-14T08:30:46.443Z,36.38
2022-09-14T08:33:15.981Z,36.53
2022-09-14T08:35:57.691Z,36.65
2022-09-14T08:38:27.802Z,36.79
2022-09-14T08:40:58.417Z,36.55
2022-09-14T08:43:29.567Z,36.33
2022-09-14T08:46:07.755Z,36.24
2022-09-14T08:48:42.465Z,36.10
2022-09-14T08:51:14.082Z,36.22
2022-09-14T08:53:45.044Z,36.45
2022-09-14T08:56:26.901Z,36.53
2022-09-14T08:59:13.057Z,36.63
2022-09-14T09:02:02.445Z,36.63
2022-09-14T09:04:35.152Z,36.37
2022-09-14T09:07:30.864Z,36.46
2022-09-14T09:10:01.434Z,36.37
2022-09-14T09:12:53.837Z,36.39
2022-09-14T09:15:25.769Z,36.52
2022-09-14T09:18:13.354Z,36.61
2022-09-14T09:20:54.160Z,36.61
2022-09-14T09:23:48.957Z,36.77
2022-09-14T09:26:28.496Z,36.83
2022-09-14T09:29:33.286Z,36.77
2022-09-14T09:33:05.538Z,36.85
2022-09-14T09:35:55.335Z,36.69
2022-09-14T09:38:31.198Z,36.76
2022-09-14T09:41:08.961Z,36.76
2022-09-14T09:44:04.307Z,36.81
2022-09-14T09:46:36.724Z,36.84
2022-09-14T09:49:32.282Z,36.98
2022-09-14T09:52:28.476Z,37.03
2022-09-14T09:54:59.734Z,36.81
2022-09-14T09:57:38.327Z,36.98
2022-09-14T10:00:22.566Z,36.95
2022-09-14T10:02:54.152Z,36.70
2022-09-14T10:05:34.252Z,36.80
2022-09-14T10:08:11.595Z,36.70
2022-09-14T10:10:46.080Z,36.63
2022-09-14T10:13:38.759Z,36.56
2022-09-14T10:16:15.984Z,36.58
2022-09-14T10:18:51.402Z,36.54
2022-09-14T10:21:23.875Z,36.51
2022-09-14T10:24:17.543Z,36.50
2022-09-14T10:26:47.321Z,36.32
2022-09-14T10:29:31.124Z,36.42
2022-09-14T10:32:25.307Z,36.38
2022-09-14T10:34:55.864Z,36.21
2022-09-14T10:37:33.549Z,36.21
2022-09-14T10:40:17.485Z,36.29
2022-09-14T10:43:01.643Z,36.31
2022-09-14T10:45:43.126Z,36.10
2022-09-14T10:48:39.188Z,36.10
2022-09-14T10:51:09.491Z,36.03
2022-09-14T10:54:12.558Z,35.99
2022-09-14T10:57:06.748Z,35.87
2022-09-14T10:59:50.151Z,35.90
2022-09-14T11:02:41.044Z,35.74
2022-09-14T11:05:22.748Z,35.57
2022-09-14T11:08:07.926Z,35.54
2022-09-14T11:10:56.002Z,35.42
2022-09-14T11:13:34.850Z,35.43
2022-09-14T11:16:10.701Z,35.44
2022-09-14T11:19:27.105Z,35.44
2022-09-14T11:22:00.230Z,35.42
2022-09-14T11:24:52.405Z,35.40
2022-09-14T11:27:37.376Z,35.48
2022-09-14T11:30:25.518Z,35.49
2022-09-14T11:33:05.273Z,35.37
2022-09-14T11:35:47.876Z,35.54
2022-09-14T11:38:25.825Z,35.45
2022-09-14T11:41:04.720Z,35.48
2022-09-14T11:44:02.696Z,35.40
2022-09-14T11:46:51.548Z,35.64
2022-09-14T11:49:32.348Z,35.56
2022-09-14T11:52:10.195Z,35.62
2022-09-14T11:54:53.122Z,35.63
2022-09-14T11:57:28.036Z,35.40
2022-09-14T12:00:07.694Z,35.42
2022-09-14T12:02:39.247Z,35.37
2022-09-14T12:05:09.414Z,35.51
2022-09-14T12:07:44.920Z,35.51
2022-09-14T12:10:18.165Z,35.56
2022-09-14T12:12:49.924Z,35.57
2022-09-14T12:15:20.657Z,35.52
2022-09-14T12:17:51.670Z,35.54
2022-09-14T12:20:34.777Z,35.56
2022-09-14T12:23:40.557Z,35.54
2022-09-14T12:26:14.550Z,35.60
2022-09-14T12:28:50.995Z,35.47
2022-09-14T12:31:51.777Z,35.39
2022-09-14T12:34:25.915Z,35.38
2022-09-14T12:36:59.275Z,35.35
2022-09-14T12:39:37.506Z,35.36
2022-09-14T12:42:30.320Z,35.30
2022-09-14T12:45:20.349Z,35.16
2022-09-14T12:47:53.701Z,35.07
2022-09-14T12:50:24.596Z,34.93
2022-09-14T12:53:16.226Z,34.90
2022-09-14T12:56:01.105Z,34.97
2022-09-14T12:59:06.575Z,34.95
2022-09-14T13:02:14.463Z,34.95
2022-09-14T13:04:46.900Z,34.77
2022-09-14T13:07:21.683Z,34.73
2022-09-14T13:09:55.153Z,34.71
2022-09-14T13:12:46.275Z,34.69
2022-09-14T13:15:38.130Z,34.63
2022-09-14T13:18:20.369Z,34.38
2022-09-14T13:20:55.536Z,34.33
2022-09-14T13:23:43.539Z,34.29
2022-09-14T13:26:25.790Z,34.30
2022-09-14T13:28:57.410Z,34.12
2022-09-14T13:31:39.338Z,34.19
2022-09-14T13:34:29.414Z,34.13
2022-09-14T13:37:01.477Z,34.01
2022-09-14T13:39:37.531Z,34.07
2022-09-14T13:42:08.326Z,33.95
2022-09-14T13:44:51.190Z,33.88
2022-09-14T13:47:32.657Z,33.90
2022-09-14T13:50:04.856Z,33.74
2022-09-14T13:53:03.069Z,33.74
2022-09-14T13:55:36.691Z,33.80
2022-09-14T13:58:20.922Z,33.77
2022-09-14T14:00:57.152Z,33.75
2022-09-14T14:03:37.777Z,33.73
2022-09-14T14:06:41.693Z,33.78
2022-09-14T14:09:12.942Z,33.58
2022-09-14T14:11:53.311Z,33.65
2022-09-14T14:14:30.931Z,33.57
2022-09-14T14:17:32.175Z,33.61
2022-09-14T14:20:26.169Z,33.64
2022-09-14T14:23:09.170Z,33.65
2022-09-14T14:25:45.984Z,33.55
2022-09-14T14:28:31.832Z,33.68
2022-09-14T14:31:08.970Z,33.62
2022-09-14T14:33:47.672Z,33.68
2022-09-14T14:36:17.762Z,33.55
2022-09-14T14:38:49.478Z,33.54
2022-09-14T14:41:23.323Z,33.54
2022-09-14T14:44:22.960Z,33.56
2022-09-14T14:47:15.951Z,33.33
2022-09-14T14:50:16.324Z,33.34
2022-09-14T14:53:08.584Z,33.29
2022-09-14T14:56:01.958Z,33.16
2022-09-14T14:58:58.888Z,33.18
2022-09-14T15:01:53.549Z,33.09
2022-09-14T15:04:44.623Z,33.12
2022-09-14T15:07:37.632Z,33.08
2022-09-14T15:10:32.675Z,33.19
2022-09-14T15:13:23.596Z,33.10
2022-09-14T15:16:15.336Z,32.99
2022-09-14T15:19:05.648Z,32.93
2022-09-14T15:22:01.037Z,32.95
2022-09-14T15:24:52.007Z,32.93
2022-09-14T15:27:42.895Z,32.83
2022-09-14T15:30:14.956Z,32.82
2022-09-14T15:33:04.230Z,32.81
2022-09-14T15:35:59.640Z,32.94
2022-09-14T15:38:49.768Z,32.89
2022-09-14T15:41:41.125Z,32.86
2022-09-14T15:44:32.316Z,32.86
2022-09-14T15:47:22.730Z,32.74
2022-09-14T15:50:13.316Z,32.79
2022-09-14T15:53:03.392Z,32.75
2022-09-14T15:55:54.434Z,32.78
2022-09-14T15:58:48.126Z,32.74
2022-09-14T16:01:38.615Z,32.69
2022-09-14T16:04:29.845Z,32.61
2022-09-14T16:07:00.892Z,32.57
2022-09-14T16:09:30.775Z,32.50
2022-09-14T16:12:01.982Z,32.47
2022-09-14T16:14:32.328Z,32.50
2022-09-14T16:17:02.933Z,32.57
2022-09-14T16:19:33.526Z,32.58
2022-09-14T16:22:03.325Z,32.59
2022-09-14T16:24:33.722Z,32.58
2022-09-14T16:27:03.760Z,32.54
2022-09-14T16:29:33.807Z,32.46
2022-09-14T16:32:03.531Z,32.47
2022-09-14T16:34:34.281Z,32.50
2022-09-14T16:37:04.019Z,32.51
2022-09-14T16:39:36.305Z,32.50
2022-09-14T16:42:06.542Z,32.65
2022-09-14T16:44:36.511Z,32.48
2022-09-14T16:47:07.396Z,32.45
2022-09-14T16:49:39.358Z,32.42
2022-09-14T16:52:09.816Z,32.41
2022-09-14T16:54:40.885Z,32.47
2022-09-14T16:57:11.292Z,32.50
2022-09-14T16:59:41.550Z,32.49
2022-09-14T17:02:14.339Z,32.52
2022-09-14T17:04:44.748Z,32.47
2022-09-14T17:07:18.030Z,32.51
2022-09-14T17:09:47.940Z,32.47
2022-09-14T17:12:18.217Z,32.42
2022-09-14T17:14:49.129Z,32.45
2022-09-14T17:17:19.195Z,32.44
2022-09-14T17:19:49.249Z,32.42
2022-09-14T17:22:19.339Z,32.44
2022-09-14T17:24:50.123Z,32.37
2022-09-14T17:27:21.430Z,32.39
2022-09-14T17:29:52.439Z,32.39
2022-09-14T17:32:22.411Z,32.25
2022-09-14T17:34:53.605Z,32.18
2022-09-14T17:37:24.922Z,32.12
2022-09-14T17:39:55.052Z,32.14
2022-09-14T17:42:25.150Z,32.06
2022-09-14T17:44:55.437Z,31.96
2022-09-14T17:47:27.130Z,32.04
2022-09-14T17:49:57.065Z,31.78
2022-09-14T17:52:26.833Z,31.74
2022-09-14T17:54:57.458Z,31.58
2022-09-14T17:57:27.304Z,31.56
2022-09-14T17:59:57.194Z,31.64
2022-09-14T18:02:27.287Z,31.61
2022-09-14T18:04:57.115Z,31.58
2022-09-14T18:07:27.685Z,31.45
2022-09-14T18:09:57.841Z,31.46
2022-09-14T18:12:28.917Z,31.35
2022-09-14T18:14:58.672Z,31.28
2022-09-14T18:17:29.426Z,31.27
2022-09-14T18:20:00.056Z,31.05
2022-09-14T18:22:31.756Z,31.16
2022-09-14T18:25:01.629Z,31.26
2022-09-14T18:27:32.517Z,31.20
2022-09-14T18:30:04.869Z,31.20
2022-09-14T18:32:35.281Z,31.33
2022-09-14T18:35:06.570Z,31.14
2022-09-14T18:37:36.875Z,31.04
2022-09-14T18:40:07.125Z,31.03
2022-09-14T18:42:38.018Z,31.05
2022-09-14T18:45:08.445Z,31.07
2022-09-14T18:47:38.256Z,31.04
2022-09-14T18:50:10.004Z,30.92
2022-09-14T18:52:39.778Z,30.96
2022-09-14T18:55:10.252Z,31.04
2022-09-14T18:57:41.081Z,30.98
2022-09-14T19:00:15.121Z,30.87
2022-09-14T19:02:55.577Z,30.93
2022-09-14T19:05:26.988Z,30.87
2022-09-14T19:07:56.982Z,30.86
2022-09-14T19:10:28.154Z,30.82
2022-09-14T19:12:58.122Z,30.95
2022-09-14T19:15:30.833Z,30.94
2022-09-14T19:18:03.346Z,30.86
2022-09-14T19:20:55.083Z,30.77
2022-09-14T19:23:24.458Z,30.80
2022-09-14T19:25:54.244Z,30.71
2022-09-14T19:28:24.312Z,30.77
2022-09-14T19:30:54.184Z,30.84
2022-09-14T19:33:25.349Z,30.81
2022-09-14T19:35:55.134Z,30.77
2022-09-14T19:38:25.957Z,30.84
2022-09-14T19:40:55.757Z,30.69
2022-09-14T19:43:25.638Z,30.77
2022-09-14T19:45:56.373Z,30.69
2022-09-14T19:48:26.665Z,30.78
2022-09-14T19:51:01.473Z,30.70
2022-09-14T19:53:33.075Z,30.77
2022-09-14T19:56:07.361Z,30.70
2022-09-14T19:58:42.334Z,30.77
2022-09-14T20:01:12.926Z,30.74
2022-09-14T20:03:43.209Z,30.79
2022-09-14T20:06:21.037Z,30.77
2022-09-14T20:08:53.489Z,30.77
2022-09-14T20:11:25.141Z,30.74
2022-09-14T20:13:57.163Z,30.81
2022-09-14T20:16:35.961Z,30.63
2022-09-14T20:19:12.158Z,30.76
2022-09-14T20:21:43.367Z,30.70
2022-09-14T20:24:19.534Z,30.73
2022-09-14T20:26:51.863Z,30.56
2022-09-14T20:29:24.382Z,30.52
2022-09-14T20:31:54.943Z,30.51
2022-09-14T20:34:25.157Z,30.53
2022-09-14T20:36:55.920Z,30.43
2022-09-14T20:39:26.438Z,30.55
2022-09-14T20:41:56.504Z,30.52
2022-09-14T20:44:27.913Z,30.40
2022-09-14T20:46:58.171Z,30.40
2022-09-14T20:49:28.215Z,30.39
2022-09-14T20:51:58.787Z,30.45
2022-09-14T20:54:30.002Z,30.44
2022-09-14T20:57:04.082Z,30.40
2022-09-14T20:59:36.071Z,30.37
2022-09-14T21:02:06.004Z,30.32
2022-09-14T21:04:37.848Z,30.32
2022-09-14T21:07:07.641Z,30.35
2022-09-14T21:09:38.259Z,30.30
2022-09-14T21:12:12.848Z,30.17
2022-09-14T21:14:44.674Z,30.10
2022-09-14T21:17:14.374Z,30.18
2022-09-14T21:19:44.260Z,30.21
2022-09-14T21:22:15.078Z,30.23
2022-09-14T21:24:44.957Z,30.23
2022-09-14T21:27:15.055Z,30.02
2022-09-14T21:29:44.945Z,30.03
2022-09-14T21:32:15.856Z,30.07
2022-09-14T21:34:45.816Z,30.18
2022-09-14T21:37:15.616Z,30.06
2022-09-14T21:39:45.550Z,30.04
2022-09-14T21:42:15.393Z,30.04
2022-09-14T21:44:45.234Z,30.08
2022-09-14T21:47:15.752Z,30.08
2022-09-14T21:49:45.589Z,30.15
2022-09-14T21:52:16.039Z,30.14
2022-09-14T21:54:47.110Z,30.09
2022-09-14T21:57:17.910Z,30.05
2022-09-14T21:59:47.952Z,30.00
2022-09-14T22:02:18.756Z,30.03
2022-09-14T22:04:49.103Z,30.02
2022-09-14T22:07:19.973Z,30.05
2022-09-14T22:09:49.866Z,30.12
2022-09-14T22:12:21.631Z,30.15
2022-09-14T22:14:51.792Z,29.99
2022-09-14T22:17:22.195Z,30.03
2022-09-14T22:19:56.278Z,29.98
2022-09-14T22:22:27.250Z,30.07
2022-09-14T22:24:57.068Z,30.00
2022-09-14T22:27:26.942Z,29.85
2022-09-14T22:29:57.148Z,30.02
2022-09-14T22:32:26.795Z,29.91
2022-09-14T22:34:57.721Z,30.02
2022-09-14T22:37:27.380Z,29.98
2022-09-14T22:39:57.430Z,29.89
2022-09-14T22:42:29.279Z,29.96
2022-09-14T22:44:59.975Z,29.96
2022-09-14T22:47:31.341Z,29.96
2022-09-14T22:50:01.149Z,29.98
2022-09-14T22:52:30.701Z,29.93
2022-09-14T22:55:01.427Z,29.85
2022-09-14T22:57:31.333Z,29.97
2022-09-14T23:00:01.097Z,29.92
2022-09-14T23:02:30.976Z,29.90
2022-09-14T23:05:00.987Z,29.73
2022-09-14T23:07:33.420Z,29.88
2022-09-14T23:10:04.200Z,29.81
2022-09-14T23:12:34.694Z,29.77
2022-09-14T23:15:05.336Z,29.72
2022-09-14T23:17:35.425Z,29.77
2022-09-14T23:20:06.732Z,29.60
2022-09-14T23:22:36.524Z,29.68
2022-09-14T23:25:07.153Z,29.71
2022-09-14T23:27:36.968Z,29.73
2022-09-14T23:30:08.364Z,29.76
2022-09-14T23:32:38.283Z,29.62
2022-09-14T23:35:09.483Z,29.71
2022-09-14T23:37:40.004Z,29.66
2022-09-14T23:40:11.196Z,29.71
2022-09-14T23:42:41.240Z,29.73
2022-09-14T23:45:12.306Z,29.67
2022-09-14T23:47:42.195Z,29.64
2022-09-14T23:50:12.903Z,29.61
2022-09-14T23:52:42.686Z,29.60
2022-09-14T23:55:12.592Z,29.47
2022-09-14T23:57:43.236Z,29.49
